SVMC/MAR METAR and TAF weather

Enter ICAO airport designator
Station Type Date Time Source
SVMC METAR 2019/12/12 02:00 UTC NOAA

SVMC 120200Z 36003KT 9999 SCT013 27/22 Q1011


Station Type Date Time Source
SVMC Decoded METAR 2019/12/12 02:00 UTC NOAA

Maracaibo-La Chinita, Venezuela (SVMC) 10-34N 071-44W 65M
Dec 11, 2019 - 09:00 PM EST / 2019.12.12 0200 UTC
Wind: from the N (360 degrees) at 3 MPH (3 KT):0
Visibility: greater than 7 mile(s):0
Sky conditions: partly cloudy
Temperature: 80 F (27 C)
Dew Point: 71 F (22 C)
Relative Humidity: 74%
Pressure (altimeter): 29.85 in. Hg (1011 hPa)
ob: SVMC 120200Z 36003KT 9999 SCT013 27/22 Q1011
cycle: 2

Station Type Date Time Source
SVMC TAF 2019/12/12 06:03 UTC NOAA

TAF SVMC 120400Z 1206/1306 16006KT 9999 SCT016 TX32/19Z TN23/08Z
BECMG 1206/1210 14004KT BKN016

Example: see airport list